sensor_id;sensor_type;location;lat;lon;timestamp;temperature;humidity
81307;DHT22;70775;50.846;3.224;2024-03-22T00:00:35;11.50;99.90
81307;DHT22;70775;50.846;3.224;2024-03-22T00:03:01;11.40;99.90
81307;DHT22;70775;50.846;3.224;2024-03-22T00:05:26;11.40;99.90
81307;DHT22;70775;50.846;3.224;2024-03-22T00:07:52;11.40;99.90
81307;DHT22;70775;50.846;3.224;2024-03-22T00:10:18;11.40;99.90
81307;DHT22;70775;50.846;3.224;2024-03-22T00:12:43;11.40;99.90
81307;DHT22;70775;50.846;3.224;2024-03-22T00:15:09;11.30;99.90
81307;DHT22;70775;50.846;3.224;2024-03-22T00:17:34;11.30;99.90
81307;DHT22;70775;50.846;3.224;2024-03-22T00:20:01;11.30;99.90
81307;DHT22;70775;50.846;3.224;2024-03-22T00:22:26;11.20;99.90
81307;DHT22;70775;50.846;3.224;2024-03-22T00:24:52;11.20;99.90
81307;DHT22;70775;50.846;3.224;2024-03-22T00:27:18;11.20;99.90
81307;DHT22;70775;50.846;3.224;2024-03-22T00:29:43;11.20;99.90
81307;DHT22;70775;50.846;3.224;2024-03-22T00:32:09;11.20;99.90
81307;DHT22;70775;50.846;3.224;2024-03-22T00:34:35;11.20;99.90
81307;DHT22;70775;50.846;3.224;2024-03-22T00:37:01;11.20;99.90
81307;DHT22;70775;50.846;3.224;2024-03-22T00:39:26;11.20;99.90
81307;DHT22;70775;50.846;3.224;2024-03-22T00:41:52;11.20;99.90
81307;DHT22;70775;50.846;3.224;2024-03-22T00:44:17;11.20;99.90
81307;DHT22;70775;50.846;3.224;2024-03-22T00:46:43;11.20;99.90
81307;DHT22;70775;50.846;3.224;2024-03-22T00:49:09;11.20;99.90
81307;DHT22;70775;50.846;3.224;2024-03-22T00:51:34;11.10;99.90
81307;DHT22;70775;50.846;3.224;2024-03-22T00:54:00;11.10;99.90
81307;DHT22;70775;50.846;3.224;2024-03-22T00:56:25;11.00;99.90
81307;DHT22;70775;50.846;3.224;2024-03-22T00:58:51;11.00;99.90
81307;DHT22;70775;50.846;3.224;2024-03-22T01:01:17;10.90;99.90
81307;DHT22;70775;50.846;3.224;2024-03-22T01:03:43;10.90;99.90
81307;DHT22;70775;50.846;3.224;2024-03-22T01:06:08;10.80;99.90
81307;DHT22;70775;50.846;3.224;2024-03-22T01:08:34;10.80;99.90
81307;DHT22;70775;50.846;3.224;2024-03-22T01:10:59;10.90;99.90
81307;DHT22;70775;50.846;3.224;2024-03-22T01:13:25;10.80;99.90
81307;DHT22;70775;50.846;3.224;2024-03-22T01:15:51;10.80;99.90
81307;DHT22;70775;50.846;3.224;2024-03-22T01:18:16;10.80;99.90
81307;DHT22;70775;50.846;3.224;2024-03-22T01:20:43;10.80;99.90
81307;DHT22;70775;50.846;3.224;2024-03-22T01:23:08;10.80;99.90
81307;DHT22;70775;50.846;3.224;2024-03-22T01:25:34;10.80;99.90
81307;DHT22;70775;50.846;3.224;2024-03-22T01:27:59;10.70;99.90
81307;DHT22;70775;50.846;3.224;2024-03-22T01:30:25;10.70;99.90
81307;DHT22;70775;50.846;3.224;2024-03-22T01:32:54;10.70;99.90
81307;DHT22;70775;50.846;3.224;2024-03-22T01:35:20;10.70;99.90
81307;DHT22;70775;50.846;3.224;2024-03-22T01:37:46;10.70;99.90
81307;DHT22;70775;50.846;3.224;2024-03-22T01:40:13;10.60;99.90
81307;DHT22;70775;50.846;3.224;2024-03-22T01:42:38;10.60;99.90
81307;DHT22;70775;50.846;3.224;2024-03-22T01:45:05;10.60;99.90
81307;DHT22;70775;50.846;3.224;2024-03-22T01:47:30;10.60;99.90
81307;DHT22;70775;50.846;3.224;2024-03-22T01:49:56;10.70;99.90
81307;DHT22;70775;50.846;3.224;2024-03-22T01:52:22;10.60;99.90
81307;DHT22;70775;50.846;3.224;2024-03-22T01:54:49;10.70;99.90
81307;DHT22;70775;50.846;3.224;2024-03-22T01:57:15;10.60;99.90
81307;DHT22;70775;50.846;3.224;2024-03-22T01:59:41;10.60;99.90
81307;DHT22;70775;50.846;3.224;2024-03-22T02:02:07;10.60;99.90
81307;DHT22;70775;50.846;3.224;2024-03-22T02:04:33;10.60;99.90
81307;DHT22;70775;50.846;3.224;2024-03-22T02:06:58;10.70;99.90
81307;DHT22;70775;50.846;3.224;2024-03-22T02:09:24;10.70;99.90
81307;DHT22;70775;50.846;3.224;2024-03-22T02:11:50;10.70;99.90
81307;DHT22;70775;50.846;3.224;2024-03-22T02:14:16;10.60;99.90
81307;DHT22;70775;50.846;3.224;2024-03-22T02:16:42;10.60;99.90
81307;DHT22;70775;50.846;3.224;2024-03-22T02:19:08;10.70;99.90
81307;DHT22;70775;50.846;3.224;2024-03-22T02:21:34;10.60;99.90
81307;DHT22;70775;50.846;3.224;2024-03-22T02:24:00;10.60;99.90
81307;DHT22;70775;50.846;3.224;2024-03-22T02:26:25;10.70;99.90
81307;DHT22;70775;50.846;3.224;2024-03-22T02:28:51;10.70;99.90
81307;DHT22;70775;50.846;3.224;2024-03-22T02:31:17;10.60;99.90
81307;DHT22;70775;50.846;3.224;2024-03-22T02:33:42;10.60;99.90
81307;DHT22;70775;50.846;3.224;2024-03-22T02:36:09;10.60;99.90
81307;DHT22;70775;50.846;3.224;2024-03-22T02:38:34;10.60;99.90
81307;DHT22;70775;50.846;3.224;2024-03-22T02:41:00;10.50;99.90
81307;DHT22;70775;50.846;3.224;2024-03-22T02:43:26;10.60;99.90
81307;DHT22;70775;50.846;3.224;2024-03-22T02:45:51;10.50;99.90
81307;DHT22;70775;50.846;3.224;2024-03-22T02:48:17;10.60;99.90
81307;DHT22;70775;50.846;3.224;2024-03-22T02:50:42;10.60;99.90
81307;DHT22;70775;50.846;3.224;2024-03-22T02:53:08;10.70;99.90
81307;DHT22;70775;50.846;3.224;2024-03-22T02:55:38;10.60;99.90
81307;DHT22;70775;50.846;3.224;2024-03-22T02:58:04;10.60;99.90
81307;DHT22;70775;50.846;3.224;2024-03-22T03:00:31;10.70;99.90
81307;DHT22;70775;50.846;3.224;2024-03-22T03:02:56;10.70;99.90
81307;DHT22;70775;50.846;3.224;2024-03-22T03:05:22;10.70;99.90
81307;DHT22;70775;50.846;3.224;2024-03-22T03:07:50;10.60;99.90
81307;DHT22;70775;50.846;3.224;2024-03-22T03:10:16;10.70;99.90
81307;DHT22;70775;50.846;3.224;2024-03-22T03:12:42;10.70;99.90
81307;DHT22;70775;50.846;3.224;2024-03-22T03:15:08;10.60;99.90
81307;DHT22;70775;50.846;3.224;2024-03-22T03:17:33;10.70;99.90
81307;DHT22;70775;50.846;3.224;2024-03-22T03:19:59;10.70;99.90
81307;DHT22;70775;50.846;3.224;2024-03-22T03:22:24;10.70;99.90
81307;DHT22;70775;50.846;3.224;2024-03-22T03:24:50;10.60;99.90
81307;DHT22;70775;50.846;3.224;2024-03-22T03:27:16;10.60;99.90
81307;DHT22;70775;50.846;3.224;2024-03-22T03:29:42;10.70;99.90
81307;DHT22;70775;50.846;3.224;2024-03-22T03:32:07;10.70;99.90
81307;DHT22;70775;50.846;3.224;2024-03-22T03:34:33;10.70;99.90
81307;DHT22;70775;50.846;3.224;2024-03-22T03:36:59;10.70;99.90
81307;DHT22;70775;50.846;3.224;2024-03-22T03:39:27;10.70;99.90
81307;DHT22;70775;50.846;3.224;2024-03-22T03:41:52;10.70;99.90
81307;DHT22;70775;50.846;3.224;2024-03-22T03:44:18;10.70;99.90
81307;DHT22;70775;50.846;3.224;2024-03-22T03:46:44;10.70;99.90
81307;DHT22;70775;50.846;3.224;2024-03-22T03:49:09;10.70;99.90
81307;DHT22;70775;50.846;3.224;2024-03-22T03:51:35;10.70;99.90
81307;DHT22;70775;50.846;3.224;2024-03-22T03:54:01;10.60;99.90
81307;DHT22;70775;50.846;3.224;2024-03-22T03:56:27;10.60;99.90
81307;DHT22;70775;50.846;3.224;2024-03-22T03:58:52;10.60;99.90
81307;DHT22;70775;50.846;3.224;2024-03-22T04:01:19;10.70;99.90
81307;DHT22;70775;50.846;3.224;2024-03-22T04:03:44;10.60;99.90
81307;DHT22;70775;50.846;3.224;2024-03-22T04:06:10;10.60;99.90
81307;DHT22;70775;50.846;3.224;2024-03-22T04:08:35;10.60;99.90
81307;DHT22;70775;50.846;3.224;2024-03-22T04:11:01;10.60;99.90
81307;DHT22;70775;50.846;3.224;2024-03-22T04:13:28;10.60;99.90
81307;DHT22;70775;50.846;3.224;2024-03-22T04:15:54;10.50;99.90
81307;DHT22;70775;50.846;3.224;2024-03-22T04:18:23;10.50;99.90
81307;DHT22;70775;50.846;3.224;2024-03-22T04:20:56;10.50;99.90
81307;DHT22;70775;50.846;3.224;2024-03-22T04:23:23;10.50;99.90
81307;DHT22;70775;50.846;3.224;2024-03-22T04:26:00;10.50;99.90
81307;DHT22;70775;50.846;3.224;2024-03-22T04:28:26;10.50;99.90
81307;DHT22;70775;50.846;3.224;2024-03-22T04:31:05;10.50;99.90
81307;DHT22;70775;50.846;3.224;2024-03-22T04:33:32;10.50;99.90
81307;DHT22;70775;50.846;3.224;2024-03-22T04:35:58;10.50;99.90
81307;DHT22;70775;50.846;3.224;2024-03-22T04:38:25;10.40;99.90
81307;DHT22;70775;50.846;3.224;2024-03-22T04:40:50;10.40;99.90
81307;DHT22;70775;50.846;3.224;2024-03-22T04:43:16;10.40;99.90
81307;DHT22;70775;50.846;3.224;2024-03-22T04:45:46;10.40;99.90
81307;DHT22;70775;50.846;3.224;2024-03-22T04:48:17;10.40;99.90
81307;DHT22;70775;50.846;3.224;2024-03-22T04:50:43;10.40;99.90
81307;DHT22;70775;50.846;3.224;2024-03-22T04:53:09;10.40;99.90
81307;DHT22;70775;50.846;3.224;2024-03-22T04:55:34;10.40;99.90
81307;DHT22;70775;50.846;3.224;2024-03-22T04:58:00;10.40;99.90
81307;DHT22;70775;50.846;3.224;2024-03-22T05:00:26;10.40;99.90
81307;DHT22;70775;50.846;3.224;2024-03-22T05:02:52;10.40;99.90
81307;DHT22;70775;50.846;3.224;2024-03-22T05:05:18;10.40;99.90
81307;DHT22;70775;50.846;3.224;2024-03-22T05:07:44;10.40;99.90
81307;DHT22;70775;50.846;3.224;2024-03-22T05:10:09;10.40;99.90
81307;DHT22;70775;50.846;3.224;2024-03-22T05:12:35;10.40;99.90
81307;DHT22;70775;50.846;3.224;2024-03-22T05:15:03;10.40;99.90
81307;DHT22;70775;50.846;3.224;2024-03-22T05:17:29;10.40;99.90
81307;DHT22;70775;50.846;3.224;2024-03-22T05:19:57;10.40;99.90
81307;DHT22;70775;50.846;3.224;2024-03-22T05:22:23;10.40;99.90
81307;DHT22;70775;50.846;3.224;2024-03-22T05:24:48;10.40;99.90
81307;DHT22;70775;50.846;3.224;2024-03-22T05:27:14;10.40;99.90
81307;DHT22;70775;50.846;3.224;2024-03-22T05:29:39;10.50;99.90
81307;DHT22;70775;50.846;3.224;2024-03-22T05:32:05;10.50;99.90
81307;DHT22;70775;50.846;3.224;2024-03-22T05:34:31;10.50;99.90
81307;DHT22;70775;50.846;3.224;2024-03-22T05:36:57;10.40;99.90
81307;DHT22;70775;50.846;3.224;2024-03-22T05:39:22;10.40;99.90
81307;DHT22;70775;50.846;3.224;2024-03-22T05:41:48;10.40;99.90
81307;DHT22;70775;50.846;3.224;2024-03-22T05:44:13;10.40;99.90
81307;DHT22;70775;50.846;3.224;2024-03-22T05:46:39;10.40;99.90
81307;DHT22;70775;50.846;3.224;2024-03-22T05:49:05;10.40;99.90
81307;DHT22;70775;50.846;3.224;2024-03-22T05:51:30;10.40;99.90
81307;DHT22;70775;50.846;3.224;2024-03-22T05:53:56;10.40;99.90
81307;DHT22;70775;50.846;3.224;2024-03-22T05:56:22;10.40;99.90
81307;DHT22;70775;50.846;3.224;2024-03-22T05:58:48;10.40;99.90
81307;DHT22;70775;50.846;3.224;2024-03-22T06:01:13;10.40;99.90
81307;DHT22;70775;50.846;3.224;2024-03-22T06:03:39;10.40;99.90
81307;DHT22;70775;50.846;3.224;2024-03-22T06:06:05;10.40;99.90
81307;DHT22;70775;50.846;3.224;2024-03-22T06:08:31;10.40;99.90
81307;DHT22;70775;50.846;3.224;2024-03-22T06:11:05;10.40;99.90
81307;DHT22;70775;50.846;3.224;2024-03-22T06:13:32;10.40;99.90
81307;DHT22;70775;50.846;3.224;2024-03-22T06:15:58;10.40;99.90
81307;DHT22;70775;50.846;3.224;2024-03-22T06:18:24;10.40;99.90
81307;DHT22;70775;50.846;3.224;2024-03-22T06:20:49;10.40;99.90
81307;DHT22;70775;50.846;3.224;2024-03-22T06:23:15;10.30;99.90
81307;DHT22;70775;50.846;3.224;2024-03-22T06:25:41;10.40;99.90
81307;DHT22;70775;50.846;3.224;2024-03-22T06:28:06;10.40;99.90
81307;DHT22;70775;50.846;3.224;2024-03-22T06:30:32;10.50;99.90
81307;DHT22;70775;50.846;3.224;2024-03-22T06:32:57;10.50;99.90
81307;DHT22;70775;50.846;3.224;2024-03-22T06:35:23;10.40;99.90
81307;DHT22;70775;50.846;3.224;2024-03-22T06:37:49;10.40;99.90
81307;DHT22;70775;50.846;3.224;2024-03-22T06:40:16;10.50;99.90
81307;DHT22;70775;50.846;3.224;2024-03-22T06:42:41;10.50;99.90
81307;DHT22;70775;50.846;3.224;2024-03-22T06:45:07;10.50;99.90
81307;DHT22;70775;50.846;3.224;2024-03-22T06:47:33;10.50;99.90
81307;DHT22;70775;50.846;3.224;2024-03-22T06:49:59;10.60;99.90
81307;DHT22;70775;50.846;3.224;2024-03-22T06:52:24;10.60;99.90
81307;DHT22;70775;50.846;3.224;2024-03-22T06:54:50;10.50;99.90
81307;DHT22;70775;50.846;3.224;2024-03-22T06:57:16;10.60;99.90
81307;DHT22;70775;50.846;3.224;2024-03-22T06:59:42;10.60;99.90
81307;DHT22;70775;50.846;3.224;2024-03-22T07:02:07;10.60;99.90
81307;DHT22;70775;50.846;3.224;2024-03-22T07:04:35;10.60;99.90
81307;DHT22;70775;50.846;3.224;2024-03-22T07:07:00;10.70;99.90
81307;DHT22;70775;50.846;3.224;2024-03-22T07:09:26;10.70;99.90
81307;DHT22;70775;50.846;3.224;2024-03-22T07:11:54;10.70;99.90
81307;DHT22;70775;50.846;3.224;2024-03-22T07:14:19;10.70;99.90
81307;DHT22;70775;50.846;3.224;2024-03-22T07:16:45;10.80;99.90
81307;DHT22;70775;50.846;3.224;2024-03-22T07:19:11;10.80;99.90
81307;DHT22;70775;50.846;3.224;2024-03-22T07:21:37;10.80;99.90
81307;DHT22;70775;50.846;3.224;2024-03-22T07:24:04;10.80;99.90
81307;DHT22;70775;50.846;3.224;2024-03-22T07:26:29;10.80;99.90
81307;DHT22;70775;50.846;3.224;2024-03-22T07:28:56;10.80;99.90
81307;DHT22;70775;50.846;3.224;2024-03-22T07:31:21;10.90;99.90
81307;DHT22;70775;50.846;3.224;2024-03-22T07:33:47;10.90;99.90
81307;DHT22;70775;50.846;3.224;2024-03-22T07:36:15;11.00;99.90
81307;DHT22;70775;50.846;3.224;2024-03-22T07:38:42;11.00;99.90
81307;DHT22;70775;50.846;3.224;2024-03-22T07:41:08;11.00;99.90
81307;DHT22;70775;50.846;3.224;2024-03-22T07:43:33;11.00;99.90
81307;DHT22;70775;50.846;3.224;2024-03-22T07:45:59;11.00;99.90
81307;DHT22;70775;50.846;3.224;2024-03-22T07:48:24;11.10;99.90
81307;DHT22;70775;50.846;3.224;2024-03-22T07:50:57;11.10;99.90
81307;DHT22;70775;50.846;3.224;2024-03-22T07:53:23;11.10;99.90
81307;DHT22;70775;50.846;3.224;2024-03-22T07:55:49;11.10;99.90
81307;DHT22;70775;50.846;3.224;2024-03-22T07:58:14;11.10;99.90
81307;DHT22;70775;50.846;3.224;2024-03-22T08:00:40;11.20;99.90
81307;DHT22;70775;50.846;3.224;2024-03-22T08:03:06;11.20;99.90
81307;DHT22;70775;50.846;3.224;2024-03-22T08:05:32;11.20;99.90
81307;DHT22;70775;50.846;3.224;2024-03-22T08:07:57;11.20;99.90
81307;DHT22;70775;50.846;3.224;2024-03-22T08:10:23;11.20;99.90
81307;DHT22;70775;50.846;3.224;2024-03-22T08:12:49;11.30;99.90
81307;DHT22;70775;50.846;3.224;2024-03-22T08:15:14;11.30;99.90
81307;DHT22;70775;50.846;3.224;2024-03-22T08:17:40;11.40;99.90
81307;DHT22;70775;50.846;3.224;2024-03-22T08:20:06;11.60;99.90
81307;DHT22;70775;50.846;3.224;2024-03-22T08:22:32;11.50;99.90
81307;DHT22;70775;50.846;3.224;2024-03-22T08:24:58;11.40;99.90
81307;DHT22;70775;50.846;3.224;2024-03-22T08:27:23;11.40;99.90
81307;DHT22;70775;50.846;3.224;2024-03-22T08:29:50;11.40;99.90
81307;DHT22;70775;50.846;3.224;2024-03-22T08:32:15;11.40;99.90
81307;DHT22;70775;50.846;3.224;2024-03-22T08:34:41;11.50;99.90
81307;DHT22;70775;50.846;3.224;2024-03-22T08:37:06;11.60;99.90
81307;DHT22;70775;50.846;3.224;2024-03-22T08:39:32;11.70;99.90
81307;DHT22;70775;50.846;3.224;2024-03-22T08:41:58;11.80;99.90
81307;DHT22;70775;50.846;3.224;2024-03-22T08:44:24;11.80;99.90
81307;DHT22;70775;50.846;3.224;2024-03-22T08:46:49;11.80;99.90
81307;DHT22;70775;50.846;3.224;2024-03-22T08:49:15;11.90;99.90
81307;DHT22;70775;50.846;3.224;2024-03-22T08:51:41;11.90;99.90
81307;DHT22;70775;50.846;3.224;2024-03-22T08:54:07;11.80;99.90
81307;DHT22;70775;50.846;3.224;2024-03-22T08:56:32;11.90;99.90
81307;DHT22;70775;50.846;3.224;2024-03-22T08:58:59;12.00;99.90
81307;DHT22;70775;50.846;3.224;2024-03-22T09:01:24;12.00;99.90
81307;DHT22;70775;50.846;3.224;2024-03-22T09:03:50;11.90;99.90
81307;DHT22;70775;50.846;3.224;2024-03-22T09:06:16;12.00;99.90
81307;DHT22;70775;50.846;3.224;2024-03-22T09:08:42;11.90;99.90
81307;DHT22;70775;50.846;3.224;2024-03-22T09:11:08;12.00;99.90
81307;DHT22;70775;50.846;3.224;2024-03-22T09:13:34;11.90;99.90
81307;DHT22;70775;50.846;3.224;2024-03-22T09:16:01;12.00;99.90
81307;DHT22;70775;50.846;3.224;2024-03-22T09:18:27;12.00;99.90
81307;DHT22;70775;50.846;3.224;2024-03-22T09:20:53;11.90;99.90
81307;DHT22;70775;50.846;3.224;2024-03-22T09:23:19;11.80;99.90
81307;DHT22;70775;50.846;3.224;2024-03-22T09:25:46;11.80;99.90
81307;DHT22;70775;50.846;3.224;2024-03-22T09:28:13;11.90;99.90
81307;DHT22;70775;50.846;3.224;2024-03-22T09:30:39;11.90;99.90
81307;DHT22;70775;50.846;3.224;2024-03-22T09:33:06;11.90;99.90
81307;DHT22;70775;50.846;3.224;2024-03-22T09:35:36;12.00;99.90
81307;DHT22;70775;50.846;3.224;2024-03-22T09:38:02;12.10;99.90
81307;DHT22;70775;50.846;3.224;2024-03-22T09:40:28;12.30;99.90
81307;DHT22;70775;50.846;3.224;2024-03-22T09:42:54;12.30;99.90
81307;DHT22;70775;50.846;3.224;2024-03-22T09:45:23;12.30;99.90
81307;DHT22;70775;50.846;3.224;2024-03-22T09:47:49;12.30;99.90
81307;DHT22;70775;50.846;3.224;2024-03-22T09:50:16;12.20;99.90
81307;DHT22;70775;50.846;3.224;2024-03-22T09:52:42;12.10;99.90
81307;DHT22;70775;50.846;3.224;2024-03-22T09:55:09;12.00;99.90
81307;DHT22;70775;50.846;3.224;2024-03-22T09:57:38;12.10;99.90
81307;DHT22;70775;50.846;3.224;2024-03-22T10:00:07;12.10;99.90
81307;DHT22;70775;50.846;3.224;2024-03-22T10:02:33;12.10;99.90
81307;DHT22;70775;50.846;3.224;2024-03-22T10:04:59;12.10;99.90
81307;DHT22;70775;50.846;3.224;2024-03-22T10:07:25;12.20;99.90
81307;DHT22;70775;50.846;3.224;2024-03-22T10:09:58;12.20;99.90
81307;DHT22;70775;50.846;3.224;2024-03-22T10:12:23;12.30;99.90
81307;DHT22;70775;50.846;3.224;2024-03-22T10:14:52;12.30;99.90
81307;DHT22;70775;50.846;3.224;2024-03-22T10:17:18;12.30;99.90
81307;DHT22;70775;50.846;3.224;2024-03-22T10:19:44;12.30;99.90
81307;DHT22;70775;50.846;3.224;2024-03-22T10:22:10;12.30;99.90
81307;DHT22;70775;50.846;3.224;2024-03-22T10:24:36;12.30;99.90
81307;DHT22;70775;50.846;3.224;2024-03-22T10:27:01;12.30;99.90
81307;DHT22;70775;50.846;3.224;2024-03-22T10:29:27;12.30;99.90
81307;DHT22;70775;50.846;3.224;2024-03-22T10:31:54;12.40;99.90
81307;DHT22;70775;50.846;3.224;2024-03-22T10:34:24;12.40;99.90
81307;DHT22;70775;50.846;3.224;2024-03-22T10:36:50;12.50;99.90
81307;DHT22;70775;50.846;3.224;2024-03-22T10:39:17;12.50;99.90
81307;DHT22;70775;50.846;3.224;2024-03-22T10:41:46;12.40;99.90
81307;DHT22;70775;50.846;3.224;2024-03-22T10:44:13;12.30;99.90
81307;DHT22;70775;50.846;3.224;2024-03-22T10:46:47;12.20;99.90
81307;DHT22;70775;50.846;3.224;2024-03-22T10:49:18;12.10;99.90
81307;DHT22;70775;50.846;3.224;2024-03-22T10:51:47;12.10;99.90
81307;DHT22;70775;50.846;3.224;2024-03-22T10:54:18;12.10;99.90
81307;DHT22;70775;50.846;3.224;2024-03-22T10:56:46;12.10;99.90
81307;DHT22;70775;50.846;3.224;2024-03-22T10:59:23;12.20;99.90
81307;DHT22;70775;50.846;3.224;2024-03-22T11:01:51;12.20;99.90
81307;DHT22;70775;50.846;3.224;2024-03-22T11:04:19;12.10;99.90
81307;DHT22;70775;50.846;3.224;2024-03-22T11:06:51;12.00;99.90
81307;DHT22;70775;50.846;3.224;2024-03-22T11:09:23;11.90;99.90
81307;DHT22;70775;50.846;3.224;2024-03-22T11:11:55;11.80;99.90
81307;DHT22;70775;50.846;3.224;2024-03-22T11:14:22;11.60;99.90
81307;DHT22;70775;50.846;3.224;2024-03-22T11:16:49;11.50;99.90
81307;DHT22;70775;50.846;3.224;2024-03-22T11:19:16;11.50;99.90
81307;DHT22;70775;50.846;3.224;2024-03-22T11:21:42;11.60;99.90
81307;DHT22;70775;50.846;3.224;2024-03-22T11:24:07;11.50;99.90
81307;DHT22;70775;50.846;3.224;2024-03-22T11:26:33;11.50;99.90
81307;DHT22;70775;50.846;3.224;2024-03-22T11:28:59;11.50;99.90
81307;DHT22;70775;50.846;3.224;2024-03-22T11:31:25;11.60;99.90
81307;DHT22;70775;50.846;3.224;2024-03-22T11:33:56;11.60;99.90
81307;DHT22;70775;50.846;3.224;2024-03-22T11:36:25;11.60;99.90
81307;DHT22;70775;50.846;3.224;2024-03-22T11:38:50;11.60;99.90
81307;DHT22;70775;50.846;3.224;2024-03-22T11:41:21;11.60;99.90
81307;DHT22;70775;50.846;3.224;2024-03-22T11:43:49;11.70;99.90
81307;DHT22;70775;50.846;3.224;2024-03-22T11:46:16;11.70;99.90
81307;DHT22;70775;50.846;3.224;2024-03-22T11:48:42;11.70;99.90
81307;DHT22;70775;50.846;3.224;2024-03-22T11:51:09;11.80;99.90
81307;DHT22;70775;50.846;3.224;2024-03-22T11:53:37;11.90;99.90
81307;DHT22;70775;50.846;3.224;2024-03-22T11:56:04;11.90;99.90
81307;DHT22;70775;50.846;3.224;2024-03-22T11:58:30;11.90;99.90
81307;DHT22;70775;50.846;3.224;2024-03-22T12:00:58;11.90;99.90
81307;DHT22;70775;50.846;3.224;2024-03-22T12:03:25;11.90;99.90
81307;DHT22;70775;50.846;3.224;2024-03-22T12:05:54;11.80;99.90
81307;DHT22;70775;50.846;3.224;2024-03-22T12:08:20;11.80;99.90
81307;DHT22;70775;50.846;3.224;2024-03-22T12:10:45;11.80;99.90
81307;DHT22;70775;50.846;3.224;2024-03-22T12:13:11;11.80;99.90
81307;DHT22;70775;50.846;3.224;2024-03-22T12:15:37;11.80;99.90
81307;DHT22;70775;50.846;3.224;2024-03-22T12:18:03;11.60;99.90
81307;DHT22;70775;50.846;3.224;2024-03-22T12:20:28;11.50;99.90
81307;DHT22;70775;50.846;3.224;2024-03-22T12:22:55;11.50;99.90
81307;DHT22;70775;50.846;3.224;2024-03-22T12:25:21;11.50;99.90
81307;DHT22;70775;50.846;3.224;2024-03-22T12:27:47;11.50;99.90
81307;DHT22;70775;50.846;3.224;2024-03-22T12:30:12;11.40;99.90
81307;DHT22;70775;50.846;3.224;2024-03-22T12:32:38;11.30;99.90
81307;DHT22;70775;50.846;3.224;2024-03-22T12:35:04;11.30;99.90
81307;DHT22;70775;50.846;3.224;2024-03-22T12:37:30;11.30;99.90
81307;DHT22;70775;50.846;3.224;2024-03-22T12:39:56;11.30;99.90
81307;DHT22;70775;50.846;3.224;2024-03-22T12:42:22;11.30;99.90
81307;DHT22;70775;50.846;3.224;2024-03-22T12:44:48;11.30;99.90
81307;DHT22;70775;50.846;3.224;2024-03-22T12:47:14;11.20;99.90
81307;DHT22;70775;50.846;3.224;2024-03-22T12:49:39;11.20;99.90
81307;DHT22;70775;50.846;3.224;2024-03-22T12:52:06;11.10;99.90
81307;DHT22;70775;50.846;3.224;2024-03-22T12:54:32;11.10;99.90
81307;DHT22;70775;50.846;3.224;2024-03-22T12:56:58;11.10;99.90
81307;DHT22;70775;50.846;3.224;2024-03-22T12:59:23;11.10;99.90
81307;DHT22;70775;50.846;3.224;2024-03-22T13:01:49;11.20;99.90
81307;DHT22;70775;50.846;3.224;2024-03-22T13:04:15;11.10;99.90
81307;DHT22;70775;50.846;3.224;2024-03-22T13:06:40;11.00;99.90
81307;DHT22;70775;50.846;3.224;2024-03-22T13:09:06;11.00;99.90
81307;DHT22;70775;50.846;3.224;2024-03-22T13:11:35;10.90;99.90
81307;DHT22;70775;50.846;3.224;2024-03-22T13:14:01;11.00;99.90
81307;DHT22;70775;50.846;3.224;2024-03-22T13:16:26;11.10;99.90
81307;DHT22;70775;50.846;3.224;2024-03-22T13:18:53;11.10;99.90
81307;DHT22;70775;50.846;3.224;2024-03-22T13:21:18;11.20;99.90
81307;DHT22;70775;50.846;3.224;2024-03-22T13:23:44;11.20;99.90
81307;DHT22;70775;50.846;3.224;2024-03-22T13:26:10;11.20;99.90
81307;DHT22;70775;50.846;3.224;2024-03-22T13:28:36;11.20;99.90
81307;DHT22;70775;50.846;3.224;2024-03-22T13:31:04;11.20;99.90
81307;DHT22;70775;50.846;3.224;2024-03-22T13:33:35;11.20;99.90
81307;DHT22;70775;50.846;3.224;2024-03-22T13:36:02;11.20;99.90
81307;DHT22;70775;50.846;3.224;2024-03-22T13:38:27;11.10;99.90
81307;DHT22;70775;50.846;3.224;2024-03-22T13:40:57;11.10;99.90
81307;DHT22;70775;50.846;3.224;2024-03-22T13:43:28;11.10;99.90
81307;DHT22;70775;50.846;3.224;2024-03-22T13:45:54;11.20;99.90
81307;DHT22;70775;50.846;3.224;2024-03-22T13:48:21;11.20;99.90
81307;DHT22;70775;50.846;3.224;2024-03-22T13:50:54;11.30;99.90
81307;DHT22;70775;50.846;3.224;2024-03-22T13:53:20;11.20;99.90
81307;DHT22;70775;50.846;3.224;2024-03-22T13:55:48;11.20;99.90
81307;DHT22;70775;50.846;3.224;2024-03-22T13:58:14;11.20;99.90
81307;DHT22;70775;50.846;3.224;2024-03-22T14:00:39;11.20;99.90
81307;DHT22;70775;50.846;3.224;2024-03-22T14:03:05;11.20;99.90
81307;DHT22;70775;50.846;3.224;2024-03-22T14:05:31;11.20;99.90
81307;DHT22;70775;50.846;3.224;2024-03-22T14:07:58;11.20;99.90
81307;DHT22;70775;50.846;3.224;2024-03-22T14:10:24;11.20;99.90
81307;DHT22;70775;50.846;3.224;2024-03-22T14:12:52;11.10;99.90
81307;DHT22;70775;50.846;3.224;2024-03-22T14:15:17;11.20;99.90
81307;DHT22;70775;50.846;3.224;2024-03-22T14:17:43;11.20;99.90
81307;DHT22;70775;50.846;3.224;2024-03-22T14:20:09;11.20;99.90
81307;DHT22;70775;50.846;3.224;2024-03-22T14:22:41;11.10;99.90
81307;DHT22;70775;50.846;3.224;2024-03-22T14:25:07;11.10;99.90
81307;DHT22;70775;50.846;3.224;2024-03-22T14:27:37;11.10;99.90
81307;DHT22;70775;50.846;3.224;2024-03-22T14:30:04;11.00;99.90
81307;DHT22;70775;50.846;3.224;2024-03-22T14:32:33;10.90;99.90
81307;DHT22;70775;50.846;3.224;2024-03-22T14:34:58;10.90;99.90
81307;DHT22;70775;50.846;3.224;2024-03-22T14:37:24;10.90;99.90
81307;DHT22;70775;50.846;3.224;2024-03-22T14:39:50;10.90;99.90
81307;DHT22;70775;50.846;3.224;2024-03-22T14:42:15;11.00;99.90
81307;DHT22;70775;50.846;3.224;2024-03-22T14:44:41;11.00;99.90
81307;DHT22;70775;50.846;3.224;2024-03-22T14:47:07;11.10;99.90
81307;DHT22;70775;50.846;3.224;2024-03-22T14:49:32;11.10;99.90
81307;DHT22;70775;50.846;3.224;2024-03-22T14:51:58;11.10;99.90
81307;DHT22;70775;50.846;3.224;2024-03-22T14:54:24;11.10;99.90
81307;DHT22;70775;50.846;3.224;2024-03-22T14:56:49;11.00;99.90
81307;DHT22;70775;50.846;3.224;2024-03-22T14:59:15;11.00;99.90
81307;DHT22;70775;50.846;3.224;2024-03-22T15:01:40;10.90;99.90
81307;DHT22;70775;50.846;3.224;2024-03-22T15:04:06;10.80;99.90
81307;DHT22;70775;50.846;3.224;2024-03-22T15:06:32;10.80;99.90
81307;DHT22;70775;50.846;3.224;2024-03-22T15:08:58;10.90;99.90
81307;DHT22;70775;50.846;3.224;2024-03-22T15:11:25;10.90;99.90
81307;DHT22;70775;50.846;3.224;2024-03-22T15:13:50;10.90;99.90
81307;DHT22;70775;50.846;3.224;2024-03-22T15:16:16;10.90;99.90
81307;DHT22;70775;50.846;3.224;2024-03-22T15:18:41;10.80;99.90
81307;DHT22;70775;50.846;3.224;2024-03-22T15:21:08;10.80;99.90
81307;DHT22;70775;50.846;3.224;2024-03-22T15:23:34;10.80;99.90